createdAt,value
2022-10-05T00:02:00.518Z,99661.22
2022-10-05T00:07:09.878Z,99655.84
2022-10-05T00:12:18.938Z,99648.00
2022-10-05T00:17:23.563Z,99647.00
2022-10-05T00:22:31.365Z,99634.59
2022-10-05T00:27:37.898Z,99633.59
2022-10-05T00:32:41.223Z,99627.41
2022-10-05T00:37:44.395Z,99631.09
2022-10-05T00:42:53.798Z,99625.94
2022-10-05T00:48:02.839Z,99629.81
2022-10-05T00:53:12.849Z,99628.16
2022-10-05T00:58:24.020Z,99627.31
2022-10-05T01:03:33.296Z,99624.00
2022-10-05T01:08:44.338Z,99626.88
2022-10-05T01:13:54.609Z,99625.69
2022-10-05T01:19:02.154Z,99625.03
2022-10-05T01:24:23.899Z,99629.56
2022-10-05T01:29:33.509Z,99614.50
2022-10-05T01:34:42.090Z,99611.81
2022-10-05T01:39:50.249Z,99618.22
2022-10-05T01:45:01.002Z,99609.53
2022-10-05T01:50:06.929Z,99604.16
2022-10-05T01:55:19.052Z,99596.34
2022-10-05T02:00:23.196Z,99591.97
2022-10-05T02:05:30.347Z,99589.28
2022-10-05T02:10:36.827Z,99582.28
2022-10-05T02:15:43.486Z,99577.09
2022-10-05T02:20:49.118Z,99567.44
2022-10-05T02:25:53.921Z,99571.97
2022-10-05T02:31:02.502Z,99569.47
2022-10-05T02:36:12.979Z,99569.47
2022-10-05T02:41:22.639Z,99562.47
2022-10-05T02:46:31.606Z,99567.16
2022-10-05T02:51:39.845Z,99570.66
2022-10-05T02:56:48.931Z,99570.66
2022-10-05T03:01:58.117Z,99548.16
2022-10-05T03:07:06.391Z,99553.13
2022-10-05T03:12:16.582Z,99558.66
2022-10-05T03:17:25.057Z,99550.84
2022-10-05T03:22:39.152Z,99557.84
2022-10-05T03:27:45.580Z,99549.16
2022-10-05T03:32:57.241Z,99549.81
2022-10-05T03:38:07.652Z,99538.09
2022-10-05T03:43:25.023Z,99540.75
2022-10-05T03:48:34.520Z,99532.72
2022-10-05T03:53:41.016Z,99531.06
2022-10-05T03:58:47.417Z,99519.50
2022-10-05T04:03:53.859Z,99523.22
2022-10-05T04:09:01.260Z,99513.34
2022-10-05T04:14:08.055Z,99505.94
2022-10-05T04:19:16.545Z,99507.75
2022-10-05T04:24:21.311Z,99512.31
2022-10-05T04:29:30.756Z,99514.53
2022-10-05T04:34:56.798Z,99520.72
2022-10-05T04:40:09.852Z,99519.06
2022-10-05T04:45:19.972Z,99514.53
2022-10-05T04:50:35.634Z,99510.66
2022-10-05T04:55:50.684Z,99505.47
2022-10-05T05:01:03.288Z,99516.66
2022-10-05T05:06:17.953Z,99514.97
2022-10-05T05:11:30.344Z,99520.72
2022-10-05T05:16:37.357Z,99513.34
2022-10-05T05:21:50.774Z,99520.34
2022-10-05T05:27:44.556Z,99514.16
2022-10-05T05:33:15.069Z,99519.69
2022-10-05T05:38:30.538Z,99509.63
2022-10-05T05:43:38.159Z,99518.69
2022-10-05T05:48:41.910Z,99509.63
2022-10-05T05:53:49.007Z,99509.44
2022-10-05T05:58:55.783Z,99515.44
2022-10-05T06:04:01.881Z,99512.94
2022-10-05T06:09:12.371Z,99513.59
2022-10-05T06:14:28.400Z,99519.94
2022-10-05T06:19:33.430Z,99523.28
2022-10-05T06:24:41.706Z,99522.25
2022-10-05T06:29:57.915Z,99518.56
2022-10-05T06:35:09.175Z,99531.13
2022-10-05T06:40:28.918Z,99529.09
2022-10-05T06:45:39.676Z,99530.75
2022-10-05T06:50:52.166Z,99529.53
2022-10-05T06:56:22.259Z,99521.31
2022-10-05T07:01:33.221Z,99523.13
2022-10-05T07:06:39.425Z,99526.44
2022-10-05T07:12:05.057Z,99521.75
2022-10-05T07:17:25.850Z,99526.28
2022-10-05T07:22:46.438Z,99525.88
2022-10-05T07:27:55.969Z,99515.81
2022-10-05T07:33:05.371Z,99521.59
2022-10-05T07:38:13.431Z,99525.75
2022-10-05T07:43:32.050Z,99533.38
2022-10-05T07:48:56.034Z,99534.22
2022-10-05T07:54:07.844Z,99545.56
2022-10-05T07:59:17.346Z,99537.53
2022-10-05T08:04:22.976Z,99544.56
2022-10-05T08:09:37.944Z,99551.59
2022-10-05T08:14:47.825Z,99543.34
2022-10-05T08:19:56.985Z,99545.00
2022-10-05T08:25:02.736Z,99556.56
2022-10-05T08:30:10.439Z,99547.50
2022-10-05T08:35:25.021Z,99549.16
2022-10-05T08:40:45.881Z,99543.41
2022-10-05T08:46:06.905Z,99541.16
2022-10-05T08:51:45.119Z,99530.88
2022-10-05T08:56:54.683Z,99534.00
2022-10-05T09:02:10.821Z,99537.13
2022-10-05T09:07:19.757Z,99538.59
2022-10-05T09:12:41.197Z,99530.34
2022-10-05T09:18:07.131Z,99531.81
2022-10-05T09:23:14.959Z,99527.94
2022-10-05T09:28:32.387Z,99520.09
2022-10-05T09:33:56.001Z,99532.88
2022-10-05T09:39:22.508Z,99520.94
2022-10-05T09:44:58.582Z,99526.13
2022-10-05T09:50:16.668Z,99503.44
2022-10-05T09:55:44.971Z,99518.97
2022-10-05T10:01:09.124Z,99509.47
2022-10-05T10:06:38.997Z,99502.06
2022-10-05T10:11:51.318Z,99500.66
2022-10-05T10:17:20.185Z,99501.09
2022-10-05T10:22:50.097Z,99503.41
2022-10-05T10:28:13.140Z,99503.88
2022-10-05T10:33:48.953Z,99495.41
2022-10-05T10:39:00.803Z,99493.53
2022-10-05T10:44:34.835Z,99501.59
2022-10-05T10:49:49.863Z,99485.94
2022-10-05T10:55:37.444Z,99475.00
2022-10-05T11:00:46.435Z,99471.28
2022-10-05T11:06:39.558Z,99472.94
2022-10-05T11:12:01.844Z,99453.75
2022-10-05T11:17:20.325Z,99453.56
2022-10-05T11:22:45.676Z,99446.13
2022-10-05T11:28:00.502Z,99431.25
2022-10-05T11:33:48.347Z,99424.25
2022-10-05T11:39:07.998Z,99414.53
2022-10-05T11:44:24.040Z,99402.56
2022-10-05T11:49:35.068Z,99395.75
2022-10-05T12:00:15.339Z,99367.44
2022-10-05T12:05:22.810Z,99357.31
2022-10-05T12:10:33.522Z,99344.31
2022-10-05T12:15:44.435Z,99333.34
2022-10-05T12:20:51.292Z,99333.97
2022-10-05T12:26:00.239Z,99314.34
2022-10-05T12:31:25.617Z,99308.38
2022-10-05T12:36:59.590Z,99305.69
2022-10-05T12:42:07.892Z,99286.25
2022-10-05T12:47:15.373Z,99281.31
2022-10-05T12:52:31.706Z,99269.34
2022-10-05T12:57:40.040Z,99274.31
2022-10-05T13:02:46.575Z,99263.38
2022-10-05T13:08:06.128Z,99259.44
2022-10-05T13:13:35.579Z,99264.41
2022-10-05T13:18:48.893Z,99265.00
2022-10-05T13:23:58.929Z,99253.03
2022-10-05T13:29:05.757Z,99232.56
2022-10-05T13:34:17.814Z,99238.13
2022-10-05T13:39:34.502Z,99243.06
2022-10-05T13:44:43.779Z,99231.69
2022-10-05T13:49:50.649Z,99227.16
2022-10-05T13:54:58.875Z,99221.75
2022-10-05T14:00:05.468Z,99218.25
2022-10-05T14:05:20.032Z,99220.72
2022-10-05T14:10:39.041Z,99210.19
2022-10-05T14:15:42.455Z,99214.72
2022-10-05T14:20:59.260Z,99219.66
2022-10-05T14:26:04.466Z,99216.53
2022-10-05T14:31:15.094Z,99219.22
2022-10-05T14:36:34.691Z,99209.09
2022-10-05T14:41:43.860Z,99207.22
2022-10-05T14:46:52.578Z,99211.34
2022-10-05T14:51:56.702Z,99201.41
2022-10-05T14:57:07.518Z,99210.91
2022-10-05T15:02:35.168Z,99217.16
2022-10-05T15:07:42.259Z,99208.84
2022-10-05T15:12:48.314Z,99217.53
2022-10-05T15:17:54.606Z,99232.03
2022-10-05T15:23:03.181Z,99235.28
2022-10-05T15:28:13.543Z,99230.78
2022-10-05T15:33:19.377Z,99235.91
2022-10-05T15:38:25.680Z,99236.97
2022-10-05T15:43:47.254Z,99244.41
2022-10-05T15:48:55.645Z,99247.72
2022-10-05T15:54:22.669Z,99254.97
2022-10-05T15:59:32.598Z,99268.63
2022-10-05T16:04:42.723Z,99275.84
2022-10-05T16:09:54.059Z,99284.97
2022-10-05T16:15:05.235Z,99285.97
2022-10-05T16:20:24.104Z,99300.47
2022-10-05T16:25:35.310Z,99303.16
2022-10-05T16:30:50.888Z,99319.28
2022-10-05T16:35:57.839Z,99320.53
2022-10-05T16:41:05.155Z,99345.13
2022-10-05T16:46:16.207Z,99355.03
2022-10-05T16:51:28.383Z,99357.53
2022-10-05T16:56:38.955Z,99360.22
2022-10-05T17:01:49.936Z,99363.94
2022-10-05T17:07:16.726Z,99379.03
2022-10-05T17:12:29.351Z,99390.81
2022-10-05T17:17:47.557Z,99396.19
2022-10-05T17:22:52.225Z,99404.47
2022-10-05T17:27:56.401Z,99431.75
2022-10-05T17:33:04.715Z,99432.56
2022-10-05T17:38:14.312Z,99452.03
2022-10-05T17:43:27.389Z,99470.44
2022-10-05T17:49:02.365Z,99471.66
2022-10-05T17:54:39.198Z,99488.41
2022-10-05T17:59:49.077Z,99503.28
2022-10-05T18:05:18.396Z,99514.25
2022-10-05T18:10:28.627Z,99508.25
2022-10-05T18:15:48.653Z,99527.25
2022-10-05T18:21:18.339Z,99533.47
2022-10-05T18:26:28.320Z,99538.84
2022-10-05T18:31:34.827Z,99531.41
2022-10-05T18:36:56.706Z,99523.34
2022-10-05T18:42:07.856Z,99519.63
2022-10-05T18:47:16.554Z,99523.16
2022-10-05T18:52:27.327Z,99533.91
2022-10-05T18:57:50.497Z,99536.38
2022-10-05T19:02:57.010Z,99541.75
2022-10-05T19:08:08.675Z,99548.78
2022-10-05T19:13:27.340Z,99537.19
2022-10-05T19:18:47.430Z,99537.19
2022-10-05T19:24:15.719Z,99543.41
2022-10-05T19:29:30.261Z,99547.56
2022-10-05T19:34:46.089Z,99555.81
2022-10-05T19:39:54.660Z,99542.97
2022-10-05T19:45:03.631Z,99564.50
2022-10-05T19:50:21.488Z,99563.69
2022-10-05T19:55:34.518Z,99560.78
2022-10-05T20:00:37.745Z,99571.53
2022-10-05T20:05:40.842Z,99564.28
2022-10-05T20:10:45.753Z,99573.19
2022-10-05T20:16:37.229Z,99565.13
2022-10-05T20:21:43.607Z,99579.41
2022-10-05T20:27:05.944Z,99574.84
2022-10-05T20:32:12.078Z,99577.53
2022-10-05T20:37:16.356Z,99582.91
2022-10-05T20:42:22.953Z,99598.84
2022-10-05T20:47:25.863Z,99603.38
2022-10-05T20:52:28.640Z,99614.13
2022-10-05T20:57:32.805Z,99612.66
2022-10-05T21:02:35.966Z,99621.16
2022-10-05T21:07:39.554Z,99628.41
2022-10-05T21:12:43.705Z,99629.00
2022-10-05T21:17:46.389Z,99638.13
2022-10-05T21:22:49.102Z,99638.31
2022-10-05T21:27:54.084Z,99639.16
2022-10-05T21:32:56.855Z,99651.56
2022-10-05T21:37:59.535Z,99645.13
2022-10-05T21:43:03.721Z,99646.38
2022-10-05T21:48:06.661Z,99663.97
2022-10-05T21:53:11.831Z,99649.69
2022-10-05T21:58:16.142Z,99647.00
2022-10-05T22:03:18.849Z,99654.44
2022-10-05T22:08:23.223Z,99669.56
2022-10-05T22:13:28.554Z,99689.00
2022-10-05T22:18:31.653Z,99783.09
2022-10-05T22:23:35.918Z,99786.41
2022-10-05T22:28:40.857Z,99801.91
2022-10-05T22:33:43.843Z,99811.81
2022-10-05T22:38:47.647Z,99816.13
2022-10-05T22:43:51.934Z,99819.88
2022-10-05T22:48:54.576Z,99815.91
2022-10-05T22:53:57.494Z,99828.91
2022-10-05T22:59:01.506Z,99846.25
2022-10-05T23:04:04.460Z,99844.81
2022-10-05T23:09:07.169Z,99850.38
2022-10-05T23:14:11.221Z,99858.00
2022-10-05T23:19:14.158Z,99863.38
2022-10-05T23:24:16.833Z,99861.72
2022-10-05T23:29:20.910Z,99877.00
2022-10-05T23:34:25.578Z,99888.59
2022-10-05T23:39:28.253Z,99954.50
2022-10-05T23:44:32.244Z,99962.38
2022-10-05T23:49:34.988Z,99986.09
2022-10-05T23:54:37.622Z,99989.34
2022-10-05T23:59:41.678Z,99991.22
